sensor_id;sensor_type;location;lat;lon;timestamp;pressure;altitude;pressure_sealevel;temperature;humidity
26865;BME280;40618;51.166;10.322;2023-08-21T00:01:21;98078.72;;;21.87;74.31
26865;BME280;40618;51.166;10.322;2023-08-21T00:03:46;98079.66;;;21.86;73.89
26865;BME280;40618;51.166;10.322;2023-08-21T00:06:12;98077.22;;;21.83;74.29
26865;BME280;40618;51.166;10.322;2023-08-21T00:08:38;98070.91;;;21.86;74.10
26865;BME280;40618;51.166;10.322;2023-08-21T00:11:03;98068.34;;;21.84;74.51
26865;BME280;40618;51.166;10.322;2023-08-21T00:13:29;98066.47;;;21.86;74.35
26865;BME280;40618;51.166;10.322;2023-08-21T00:15:55;98065.66;;;21.86;74.17
26865;BME280;40618;51.166;10.322;2023-08-21T00:18:21;98061.41;;;21.83;74.32
26865;BME280;40618;51.166;10.322;2023-08-21T00:20:47;98064.34;;;21.78;74.22
26865;BME280;40618;51.166;10.322;2023-08-21T00:23:13;98075.00;;;21.77;74.18
26865;BME280;40618;51.166;10.322;2023-08-21T00:25:38;98066.44;;;21.73;74.14
26865;BME280;40618;51.166;10.322;2023-08-21T00:28:04;98070.31;;;21.68;73.92
26865;BME280;40618;51.166;10.322;2023-08-21T00:30:30;98069.16;;;21.59;74.44
26865;BME280;40618;51.166;10.322;2023-08-21T00:32:56;98071.59;;;21.47;73.89
26865;BME280;40618;51.166;10.322;2023-08-21T00:35:22;98068.41;;;21.42;74.10
26865;BME280;40618;51.166;10.322;2023-08-21T00:37:47;98057.81;;;21.29;73.86
26865;BME280;40618;51.166;10.322;2023-08-21T00:40:13;98058.94;;;21.25;73.94
26865;BME280;40618;51.166;10.322;2023-08-21T00:42:39;98062.56;;;21.24;74.27
26865;BME280;40618;51.166;10.322;2023-08-21T00:45:05;98051.34;;;21.21;74.03
26865;BME280;40618;51.166;10.322;2023-08-21T00:47:34;98050.91;;;21.14;73.92
26865;BME280;40618;51.166;10.322;2023-08-21T00:50:01;98051.22;;;21.09;74.07
26865;BME280;40618;51.166;10.322;2023-08-21T00:52:28;98054.78;;;21.08;73.94
26865;BME280;40618;51.166;10.322;2023-08-21T00:54:54;98059.00;;;21.11;74.22
26865;BME280;40618;51.166;10.322;2023-08-21T00:57:21;98054.31;;;21.16;74.42
26865;BME280;40618;51.166;10.322;2023-08-21T00:59:48;98056.72;;;21.19;74.16
26865;BME280;40618;51.166;10.322;2023-08-21T01:02:14;98051.94;;;21.11;73.99
26865;BME280;40618;51.166;10.322;2023-08-21T01:04:39;98057.97;;;20.99;73.96
26865;BME280;40618;51.166;10.322;2023-08-21T01:07:05;98059.31;;;20.77;73.96
26865;BME280;40618;51.166;10.322;2023-08-21T01:09:59;98056.69;;;20.77;74.23
26865;BME280;40618;51.166;10.322;2023-08-21T01:15:12;98056.13;;;20.87;74.40
26865;BME280;40618;51.166;10.322;2023-08-21T01:17:39;98055.84;;;20.91;74.02
26865;BME280;40618;51.166;10.322;2023-08-21T01:20:07;98055.44;;;20.98;74.60
26865;BME280;40618;51.166;10.322;2023-08-21T01:22:38;98052.53;;;21.02;74.27
26865;BME280;40618;51.166;10.322;2023-08-21T01:25:06;98057.88;;;21.01;74.32
26865;BME280;40618;51.166;10.322;2023-08-21T01:27:33;98056.22;;;21.00;74.39
26865;BME280;40618;51.166;10.322;2023-08-21T01:30:00;98051.78;;;21.00;74.24
26865;BME280;40618;51.166;10.322;2023-08-21T01:32:48;98059.03;;;20.96;74.02
26865;BME280;40618;51.166;10.322;2023-08-21T01:35:24;98051.72;;;20.87;74.24
26865;BME280;40618;51.166;10.322;2023-08-21T01:37:51;98050.22;;;20.83;74.47
26865;BME280;40618;51.166;10.322;2023-08-21T01:40:24;98055.50;;;20.83;74.49
26865;BME280;40618;51.166;10.322;2023-08-21T01:42:52;98055.41;;;20.85;74.52
26865;BME280;40618;51.166;10.322;2023-08-21T01:45:18;98050.97;;;20.85;74.46
26865;BME280;40618;51.166;10.322;2023-08-21T01:47:43;98055.56;;;20.82;74.46
26865;BME280;40618;51.166;10.322;2023-08-21T01:50:09;98046.72;;;20.83;74.52
26865;BME280;40618;51.166;10.322;2023-08-21T01:52:34;98050.22;;;20.83;74.30
26865;BME280;40618;51.166;10.322;2023-08-21T01:55:00;98053.44;;;20.74;74.20
26865;BME280;40618;51.166;10.322;2023-08-21T01:57:26;98060.66;;;20.70;74.37
26865;BME280;40618;51.166;10.322;2023-08-21T01:59:51;98051.06;;;20.69;74.41
26865;BME280;40618;51.166;10.322;2023-08-21T02:02:17;98061.84;;;20.65;74.33
26865;BME280;40618;51.166;10.322;2023-08-21T02:04:43;98050.75;;;20.59;74.43
26865;BME280;40618;51.166;10.322;2023-08-21T02:07:08;98051.88;;;20.55;74.75
26865;BME280;40618;51.166;10.322;2023-08-21T02:09:34;98051.06;;;20.55;74.51
26865;BME280;40618;51.166;10.322;2023-08-21T02:11:59;98050.84;;;20.58;74.60
26865;BME280;40618;51.166;10.322;2023-08-21T02:14:25;98050.75;;;20.59;74.46
26865;BME280;40618;51.166;10.322;2023-08-21T02:16:51;98052.56;;;20.59;74.51
26865;BME280;40618;51.166;10.322;2023-08-21T02:19:16;98048.13;;;20.59;74.63
26865;BME280;40618;51.166;10.322;2023-08-21T02:21:42;98059.50;;;20.60;74.49
26865;BME280;40618;51.166;10.322;2023-08-21T02:24:08;98058.66;;;20.59;74.40
26865;BME280;40618;51.166;10.322;2023-08-21T02:26:33;98066.16;;;20.51;74.67
26865;BME280;40618;51.166;10.322;2023-08-21T02:28:59;98064.56;;;20.49;74.62
26865;BME280;40618;51.166;10.322;2023-08-21T02:31:24;98060.81;;;20.38;74.47
26865;BME280;40618;51.166;10.322;2023-08-21T02:33:50;98058.72;;;20.29;74.51
26865;BME280;40618;51.166;10.322;2023-08-21T02:36:16;98057.81;;;20.30;74.78
26865;BME280;40618;51.166;10.322;2023-08-21T02:38:42;98055.06;;;20.32;74.74
26865;BME280;40618;51.166;10.322;2023-08-21T02:41:07;98058.28;;;20.37;74.88
26865;BME280;40618;51.166;10.322;2023-08-21T02:43:33;98056.19;;;20.42;75.23
26865;BME280;40618;51.166;10.322;2023-08-21T02:45:59;98052.72;;;20.41;75.01
26865;BME280;40618;51.166;10.322;2023-08-21T02:48:25;98052.72;;;20.41;74.58
26865;BME280;40618;51.166;10.322;2023-08-21T02:50:50;98048.03;;;20.32;74.83
26865;BME280;40618;51.166;10.322;2023-08-21T02:53:16;98051.59;;;20.31;74.88
26865;BME280;40618;51.166;10.322;2023-08-21T02:55:42;98048.78;;;20.34;74.85
26865;BME280;40618;51.166;10.322;2023-08-21T02:58:07;98057.41;;;20.36;75.08
26865;BME280;40618;51.166;10.322;2023-08-21T03:00:34;98061.94;;;20.34;74.96
26865;BME280;40618;51.166;10.322;2023-08-21T03:02:59;98070.19;;;20.28;74.82
26865;BME280;40618;51.166;10.322;2023-08-21T03:05:25;98074.22;;;20.19;74.57
26865;BME280;40618;51.166;10.322;2023-08-21T03:07:51;98072.09;;;19.95;74.82
26865;BME280;40618;51.166;10.322;2023-08-21T03:10:17;98068.13;;;19.88;74.85
26865;BME280;40618;51.166;10.322;2023-08-21T03:12:43;98070.13;;;19.85;75.22
26865;BME280;40618;51.166;10.322;2023-08-21T03:15:09;98070.56;;;19.91;75.30
26865;BME280;40618;51.166;10.322;2023-08-21T03:17:34;98071.06;;;19.98;75.27
26865;BME280;40618;51.166;10.322;2023-08-21T03:20:00;98065.72;;;20.00;75.33
26865;BME280;40618;51.166;10.322;2023-08-21T03:22:26;98064.56;;;19.89;74.97
26865;BME280;40618;51.166;10.322;2023-08-21T03:24:51;98062.28;;;19.83;75.26
26865;BME280;40618;51.166;10.322;2023-08-21T03:27:18;98070.84;;;19.87;75.40
26865;BME280;40618;51.166;10.322;2023-08-21T03:29:44;98062.69;;;19.91;75.70
26865;BME280;40618;51.166;10.322;2023-08-21T03:32:14;98068.63;;;19.95;75.43
26865;BME280;40618;51.166;10.322;2023-08-21T03:34:41;98074.91;;;19.92;75.40
26865;BME280;40618;51.166;10.322;2023-08-21T03:37:07;98077.72;;;19.89;75.50
26865;BME280;40618;51.166;10.322;2023-08-21T03:39:32;98077.72;;;19.89;75.33
26865;BME280;40618;51.166;10.322;2023-08-21T03:41:58;98074.50;;;19.84;75.57
26865;BME280;40618;51.166;10.322;2023-08-21T03:44:24;98074.25;;;19.73;75.45
26865;BME280;40618;51.166;10.322;2023-08-21T03:46:49;98067.66;;;19.66;75.49
26865;BME280;40618;51.166;10.322;2023-08-21T03:49:15;98071.47;;;19.60;75.80
26865;BME280;40618;51.166;10.322;2023-08-21T03:51:40;98072.16;;;19.64;76.00
26865;BME280;40618;51.166;10.322;2023-08-21T03:54:06;98074.25;;;19.73;76.15
26865;BME280;40618;51.166;10.322;2023-08-21T03:56:32;98071.25;;;19.79;76.08
26865;BME280;40618;51.166;10.322;2023-08-21T03:58:57;98067.19;;;19.89;76.19
26865;BME280;40618;51.166;10.322;2023-08-21T04:01:23;98071.25;;;19.95;76.13
26865;BME280;40618;51.166;10.322;2023-08-21T04:03:48;98075.38;;;19.99;76.03
26865;BME280;40618;51.166;10.322;2023-08-21T04:06:14;98079.63;;;20.02;76.18
26865;BME280;40618;51.166;10.322;2023-08-21T04:08:40;98078.31;;;20.09;75.96
26865;BME280;40618;51.166;10.322;2023-08-21T04:11:06;98076.38;;;20.12;76.08
26865;BME280;40618;51.166;10.322;2023-08-21T04:13:32;98085.00;;;20.15;75.99
26865;BME280;40618;51.166;10.322;2023-08-21T04:15:58;98078.91;;;20.14;76.26
26865;BME280;40618;51.166;10.322;2023-08-21T04:18:23;98089.31;;;20.16;75.79
26865;BME280;40618;51.166;10.322;2023-08-21T04:20:49;98097.66;;;20.08;75.60
26865;BME280;40618;51.166;10.322;2023-08-21T04:23:15;98086.00;;;19.98;75.90
26865;BME280;40618;51.166;10.322;2023-08-21T04:25:41;98087.94;;;19.94;75.88
26865;BME280;40618;51.166;10.322;2023-08-21T04:28:08;98095.59;;;19.99;76.30
26865;BME280;40618;51.166;10.322;2023-08-21T04:30:34;98096.22;;;20.02;75.93
26865;BME280;40618;51.166;10.322;2023-08-21T04:33:00;98099.53;;;20.06;76.25
26865;BME280;40618;51.166;10.322;2023-08-21T04:35:25;98100.13;;;20.11;76.41
26865;BME280;40618;51.166;10.322;2023-08-21T04:37:51;98108.59;;;20.16;76.47
26865;BME280;40618;51.166;10.322;2023-08-21T04:40:17;98105.78;;;20.19;76.34
26865;BME280;40618;51.166;10.322;2023-08-21T04:42:45;98103.59;;;20.11;76.22
26865;BME280;40618;51.166;10.322;2023-08-21T04:45:11;98101.19;;;19.92;76.41
26865;BME280;40618;51.166;10.322;2023-08-21T04:47:36;98085.97;;;19.67;76.08
26865;BME280;40618;51.166;10.322;2023-08-21T04:50:02;98071.25;;;19.49;76.49
26865;BME280;40618;51.166;10.322;2023-08-21T04:52:28;98066.41;;;19.41;77.02
26865;BME280;40618;51.166;10.322;2023-08-21T04:54:54;98071.66;;;19.41;77.39
26865;BME280;40618;51.166;10.322;2023-08-21T04:57:19;98077.50;;;19.46;77.50
26865;BME280;40618;51.166;10.322;2023-08-21T04:59:48;98088.44;;;19.54;77.66
26865;BME280;40618;51.166;10.322;2023-08-21T05:02:14;98082.84;;;19.60;77.66
26865;BME280;40618;51.166;10.322;2023-08-21T05:04:40;98084.78;;;19.57;77.77
26865;BME280;40618;51.166;10.322;2023-08-21T05:07:05;98084.69;;;19.58;77.91
26865;BME280;40618;51.166;10.322;2023-08-21T05:09:34;98085.72;;;19.56;77.93
26865;BME280;40618;51.166;10.322;2023-08-21T05:12:00;98093.53;;;19.57;78.13
26865;BME280;40618;51.166;10.322;2023-08-21T05:14:25;98089.09;;;19.58;78.16
26865;BME280;40618;51.166;10.322;2023-08-21T05:16:51;98097.16;;;19.55;78.20
26865;BME280;40618;51.166;10.322;2023-08-21T05:19:17;98095.47;;;19.54;78.19
26865;BME280;40618;51.166;10.322;2023-08-21T05:21:43;98094.44;;;19.56;78.58
26865;BME280;40618;51.166;10.322;2023-08-21T05:24:09;98093.44;;;19.59;78.93
26865;BME280;40618;51.166;10.322;2023-08-21T05:26:38;98087.16;;;19.61;78.53
26865;BME280;40618;51.166;10.322;2023-08-21T05:29:04;98095.69;;;19.65;78.85
26865;BME280;40618;51.166;10.322;2023-08-21T05:31:30;98101.44;;;19.72;78.89
26865;BME280;40618;51.166;10.322;2023-08-21T05:33:55;98099.59;;;19.74;78.85
26865;BME280;40618;51.166;10.322;2023-08-21T05:36:21;98105.41;;;19.79;79.18
26865;BME280;40618;51.166;10.322;2023-08-21T05:38:47;98108.56;;;19.86;79.32
26865;BME280;40618;51.166;10.322;2023-08-21T05:41:14;98102.97;;;19.92;79.22
26865;BME280;40618;51.166;10.322;2023-08-21T05:43:40;98108.81;;;19.97;79.20
26865;BME280;40618;51.166;10.322;2023-08-21T05:46:07;98103.38;;;20.00;79.34
26865;BME280;40618;51.166;10.322;2023-08-21T05:48:33;98110.16;;;20.04;79.47
26865;BME280;40618;51.166;10.322;2023-08-21T05:50:59;98105.53;;;20.08;79.37
26865;BME280;40618;51.166;10.322;2023-08-21T05:53:25;98103.50;;;20.13;79.37
26865;BME280;40618;51.166;10.322;2023-08-21T05:55:52;98104.16;;;20.17;79.16
26865;BME280;40618;51.166;10.322;2023-08-21T05:58:18;98103.16;;;20.19;79.57
26865;BME280;40618;51.166;10.322;2023-08-21T06:00:44;98111.63;;;20.24;79.63
26865;BME280;40618;51.166;10.322;2023-08-21T06:03:11;98115.66;;;20.30;79.62
26865;BME280;40618;51.166;10.322;2023-08-21T06:05:37;98112.56;;;20.38;79.85
26865;BME280;40618;51.166;10.322;2023-08-21T06:08:02;98107.97;;;20.41;79.58
26865;BME280;40618;51.166;10.322;2023-08-21T06:10:28;98113.03;;;20.44;79.59
26865;BME280;40618;51.166;10.322;2023-08-21T06:12:55;98110.16;;;20.49;79.66
26865;BME280;40618;51.166;10.322;2023-08-21T06:15:21;98114.38;;;20.52;79.84
26865;BME280;40618;51.166;10.322;2023-08-21T06:17:47;98116.06;;;20.53;79.80
26865;BME280;40618;51.166;10.322;2023-08-21T06:20:12;98108.16;;;20.53;79.88
26865;BME280;40618;51.166;10.322;2023-08-21T06:22:39;98121.22;;;20.54;79.76
26865;BME280;40618;51.166;10.322;2023-08-21T06:25:05;98117.66;;;20.55;80.08
26865;BME280;40618;51.166;10.322;2023-08-21T06:27:31;98118.41;;;20.57;79.86
26865;BME280;40618;51.166;10.322;2023-08-21T06:29:57;98121.06;;;20.57;80.09
26865;BME280;40618;51.166;10.322;2023-08-21T06:32:22;98127.91;;;20.60;80.03
26865;BME280;40618;51.166;10.322;2023-08-21T06:34:48;98123.28;;;20.63;80.21
26865;BME280;40618;51.166;10.322;2023-08-21T06:37:14;98126.53;;;20.69;80.32
26865;BME280;40618;51.166;10.322;2023-08-21T06:39:40;98126.44;;;20.70;80.36
26865;BME280;40618;51.166;10.322;2023-08-21T06:42:05;98135.00;;;20.74;80.43
26865;BME280;40618;51.166;10.322;2023-08-21T06:44:31;98132.38;;;20.74;80.31
26865;BME280;40618;51.166;10.322;2023-08-21T06:46:56;98127.94;;;20.74;80.25
26865;BME280;40618;51.166;10.322;2023-08-21T06:49:22;98129.66;;;20.75;80.16
26865;BME280;40618;51.166;10.322;2023-08-21T06:51:49;98134.81;;;20.77;80.30
26865;BME280;40618;51.166;10.322;2023-08-21T06:54:15;98142.50;;;20.80;80.24
26865;BME280;40618;51.166;10.322;2023-08-21T06:56:41;98137.91;;;20.84;80.17
26865;BME280;40618;51.166;10.322;2023-08-21T06:59:06;98143.75;;;20.89;80.19
26865;BME280;40618;51.166;10.322;2023-08-21T07:01:32;98138.97;;;20.95;80.39
26865;BME280;40618;51.166;10.322;2023-08-21T07:03:58;98141.97;;;21.04;80.30
26865;BME280;40618;51.166;10.322;2023-08-21T07:06:23;98137.06;;;21.12;80.14
26865;BME280;40618;51.166;10.322;2023-08-21T07:08:49;98137.44;;;21.20;79.93
26865;BME280;40618;51.166;10.322;2023-08-21T07:11:14;98132.53;;;21.28;80.10
26865;BME280;40618;51.166;10.322;2023-08-21T07:13:42;98137.38;;;21.35;79.93
26865;BME280;40618;51.166;10.322;2023-08-21T07:16:08;98147.44;;;21.42;80.11
26865;BME280;40618;51.166;10.322;2023-08-21T07:18:35;98138.41;;;21.46;79.85
26865;BME280;40618;51.166;10.322;2023-08-21T07:21:01;98142.44;;;21.52;79.84
26865;BME280;40618;51.166;10.322;2023-08-21T07:23:29;98148.41;;;21.56;79.60
26865;BME280;40618;51.166;10.322;2023-08-21T07:25:55;98133.97;;;21.61;79.71
26865;BME280;40618;51.166;10.322;2023-08-21T07:28:22;98129.91;;;21.70;79.86
26865;BME280;40618;51.166;10.322;2023-08-21T07:30:48;98129.75;;;21.86;80.05
26865;BME280;40618;51.166;10.322;2023-08-21T07:33:13;98131.94;;;22.20;80.16
26865;BME280;40618;51.166;10.322;2023-08-21T07:35:39;98136.34;;;22.46;79.69
26865;BME280;40618;51.166;10.322;2023-08-21T07:38:04;98135.28;;;22.49;79.06
26865;BME280;40618;51.166;10.322;2023-08-21T07:40:30;98134.75;;;22.44;79.13
26865;BME280;40618;51.166;10.322;2023-08-21T07:42:55;98134.44;;;22.48;79.41
26865;BME280;40618;51.166;10.322;2023-08-21T07:45:22;98135.94;;;22.53;78.89
26865;BME280;40618;51.166;10.322;2023-08-21T07:47:47;98131.06;;;22.59;78.90
26865;BME280;40618;51.166;10.322;2023-08-21T07:50:13;98132.53;;;22.63;78.99
26865;BME280;40618;51.166;10.322;2023-08-21T07:52:41;98136.34;;;22.72;78.77
26865;BME280;40618;51.166;10.322;2023-08-21T07:55:07;98139.72;;;22.74;78.84
26865;BME280;40618;51.166;10.322;2023-08-21T07:57:33;98142.59;;;22.84;78.87
26865;BME280;40618;51.166;10.322;2023-08-21T07:59:59;98140.03;;;22.95;78.60
26865;BME280;40618;51.166;10.322;2023-08-21T08:02:25;98146.66;;;23.01;78.34
26865;BME280;40618;51.166;10.322;2023-08-21T08:04:50;98140.88;;;23.09;78.20
26865;BME280;40618;51.166;10.322;2023-08-21T08:07:16;98146.59;;;23.15;78.05
26865;BME280;40618;51.166;10.322;2023-08-21T08:09:42;98141.91;;;23.19;77.91
26865;BME280;40618;51.166;10.322;2023-08-21T08:12:07;98133.56;;;23.25;77.93
26865;BME280;40618;51.166;10.322;2023-08-21T08:14:34;98140.72;;;23.36;77.70
26865;BME280;40618;51.166;10.322;2023-08-21T08:17:00;98132.22;;;23.44;77.60
26865;BME280;40618;51.166;10.322;2023-08-21T08:19:26;98137.59;;;23.55;77.42
26865;BME280;40618;51.166;10.322;2023-08-21T08:21:52;98139.25;;;23.69;77.53
26865;BME280;40618;51.166;10.322;2023-08-21T08:24:18;98135.56;;;23.83;77.32
26865;BME280;40618;51.166;10.322;2023-08-21T08:26:44;98136.59;;;23.93;77.08
26865;BME280;40618;51.166;10.322;2023-08-21T08:29:10;98133.41;;;24.01;76.94
26865;BME280;40618;51.166;10.322;2023-08-21T08:31:36;98137.19;;;24.10;76.97
26865;BME280;40618;51.166;10.322;2023-08-21T08:34:04;98145.13;;;24.21;76.65
26865;BME280;40618;51.166;10.322;2023-08-21T08:36:30;98138.03;;;24.22;76.36
26865;BME280;40618;51.166;10.322;2023-08-21T08:38:55;98137.44;;;24.18;76.06
26865;BME280;40618;51.166;10.322;2023-08-21T08:41:33;98131.16;;;24.19;76.08
26865;BME280;40618;51.166;10.322;2023-08-21T08:44:06;98126.50;;;24.23;76.03
26865;BME280;40618;51.166;10.322;2023-08-21T08:46:32;98132.28;;;24.28;76.05
26865;BME280;40618;51.166;10.322;2023-08-21T08:48:58;98129.97;;;24.23;75.33
26865;BME280;40618;51.166;10.322;2023-08-21T08:51:28;98135.88;;;24.27;75.70
26865;BME280;40618;51.166;10.322;2023-08-21T08:53:58;98125.59;;;24.46;75.85
26865;BME280;40618;51.166;10.322;2023-08-21T08:56:25;98123.34;;;24.64;75.65
26865;BME280;40618;51.166;10.322;2023-08-21T08:58:51;98124.59;;;24.72;75.27
26865;BME280;40618;51.166;10.322;2023-08-21T09:01:16;98125.31;;;24.85;75.33
26865;BME280;40618;51.166;10.322;2023-08-21T09:03:42;98121.72;;;24.97;75.29
26865;BME280;40618;51.166;10.322;2023-08-21T09:06:09;98123.38;;;25.10;75.18
26865;BME280;40618;51.166;10.322;2023-08-21T09:08:38;98109.63;;;25.16;74.60
26865;BME280;40618;51.166;10.322;2023-08-21T09:11:03;98125.19;;;24.98;74.25
26865;BME280;40618;51.166;10.322;2023-08-21T09:13:30;98123.03;;;25.03;74.37
26865;BME280;40618;51.166;10.322;2023-08-21T09:15:56;98117.00;;;25.01;74.43
26865;BME280;40618;51.166;10.322;2023-08-21T09:18:23;98115.78;;;25.16;74.64
26865;BME280;40618;51.166;10.322;2023-08-21T09:20:49;98109.78;;;25.37;74.33
26865;BME280;40618;51.166;10.322;2023-08-21T09:23:16;98106.00;;;25.51;74.11
26865;BME280;40618;51.166;10.322;2023-08-21T09:25:44;98104.03;;;25.53;73.50
26865;BME280;40618;51.166;10.322;2023-08-21T09:28:18;98109.78;;;25.37;73.22
26865;BME280;40618;51.166;10.322;2023-08-21T09:30:51;98101.31;;;25.43;73.77
26865;BME280;40618;51.166;10.322;2023-08-21T09:33:22;98102.25;;;25.54;73.81
26865;BME280;40618;51.166;10.322;2023-08-21T09:35:51;98100.88;;;25.71;73.95
26865;BME280;40618;51.166;10.322;2023-08-21T09:38:18;98094.69;;;25.81;73.26
26865;BME280;40618;51.166;10.322;2023-08-21T09:40:54;98104.00;;;25.97;73.48
26865;BME280;40618;51.166;10.322;2023-08-21T09:43:21;98101.91;;;26.12;73.12
26865;BME280;40618;51.166;10.322;2023-08-21T09:45:49;98107.19;;;26.23;72.59
26865;BME280;40618;51.166;10.322;2023-08-21T09:48:20;98101.22;;;26.31;72.44
26865;BME280;40618;51.166;10.322;2023-08-21T09:50:47;98109.81;;;26.44;72.44
26865;BME280;40618;51.166;10.322;2023-08-21T09:53:13;98107.94;;;26.56;72.06
26865;BME280;40618;51.166;10.322;2023-08-21T09:55:39;98104.19;;;26.59;72.13
26865;BME280;40618;51.166;10.322;2023-08-21T09:58:06;98106.16;;;26.66;71.97
26865;BME280;40618;51.166;10.322;2023-08-21T10:00:34;98097.16;;;26.79;72.20
26865;BME280;40618;51.166;10.322;2023-08-21T10:03:08;98099.63;;;26.92;71.70
26865;BME280;40618;51.166;10.322;2023-08-21T10:05:37;98096.53;;;26.96;71.78
26865;BME280;40618;51.166;10.322;2023-08-21T10:08:06;98101.34;;;27.12;71.47
26865;BME280;40618;51.166;10.322;2023-08-21T10:10:34;98103.63;;;27.27;71.22
26865;BME280;40618;51.166;10.322;2023-08-21T10:13:02;98094.97;;;27.34;70.96
26865;BME280;40618;51.166;10.322;2023-08-21T10:15:31;98090.00;;;27.51;71.28
26865;BME280;40618;51.166;10.322;2023-08-21T10:18:21;98091.25;;;27.66;70.78
26865;BME280;40618;51.166;10.322;2023-08-21T10:20:48;98083.03;;;27.69;70.20
26865;BME280;40618;51.166;10.322;2023-08-21T10:23:50;98080.06;;;27.82;70.23
26865;BME280;40618;51.166;10.322;2023-08-21T10:26:20;98073.91;;;27.92;69.82
26865;BME280;40618;51.166;10.322;2023-08-21T10:28:58;98079.81;;;28.05;70.12
26865;BME280;40618;51.166;10.322;2023-08-21T10:31:36;98073.63;;;28.24;69.86
26865;BME280;40618;51.166;10.322;2023-08-21T10:34:12;98070.91;;;28.44;69.56
26865;BME280;40618;51.166;10.322;2023-08-21T10:36:40;98071.69;;;28.54;69.16
26865;BME280;40618;51.166;10.322;2023-08-21T10:39:26;98074.47;;;28.62;69.03
26865;BME280;40618;51.166;10.322;2023-08-21T10:42:11;98072.00;;;28.70;68.59
26865;BME280;40618;51.166;10.322;2023-08-21T10:47:18;98075.69;;;28.30;67.31
26865;BME280;40618;51.166;10.322;2023-08-21T10:49:55;98076.00;;;27.88;67.02
26865;BME280;40618;51.166;10.322;2023-08-21T10:52:28;98075.44;;;27.65;67.05
26865;BME280;40618;51.166;10.322;2023-08-21T10:55:02;98067.16;;;27.48;66.82
26865;BME280;40618;51.166;10.322;2023-08-21T10:57:31;98079.34;;;27.41;67.34
26865;BME280;40618;51.166;10.322;2023-08-21T10:59:59;98068.03;;;27.49;66.68
26865;BME280;40618;51.166;10.322;2023-08-21T11:02:31;98067.44;;;27.45;66.29
26865;BME280;40618;51.166;10.322;2023-08-21T11:04:58;98064.50;;;27.39;66.31
26865;BME280;40618;51.166;10.322;2023-08-21T11:07:26;98073.69;;;27.34;66.59
26865;BME280;40618;51.166;10.322;2023-08-21T11:09:53;98064.47;;;27.29;66.64
26865;BME280;40618;51.166;10.322;2023-08-21T11:12:20;98069.50;;;27.32;67.03
26865;BME280;40618;51.166;10.322;2023-08-21T11:14:47;98064.81;;;27.55;66.58
26865;BME280;40618;51.166;10.322;2023-08-21T11:17:13;98068.72;;;27.70;65.96
26865;BME280;40618;51.166;10.322;2023-08-21T11:19:41;98070.13;;;27.65;66.04
26865;BME280;40618;51.166;10.322;2023-08-21T11:22:07;98062.97;;;27.56;65.49
26865;BME280;40618;51.166;10.322;2023-08-21T11:24:43;98060.59;;;27.43;65.45
26865;BME280;40618;51.166;10.322;2023-08-21T11:27:12;98059.75;;;27.42;65.76
26865;BME280;40618;51.166;10.322;2023-08-21T11:29:47;98058.91;;;27.42;65.66
26865;BME280;40618;51.166;10.322;2023-08-21T11:32:18;98061.16;;;27.46;65.51
26865;BME280;40618;51.166;10.322;2023-08-21T11:34:55;98062.72;;;27.59;65.96
26865;BME280;40618;51.166;10.322;2023-08-21T11:37:23;98054.16;;;27.65;65.54
26865;BME280;40618;51.166;10.322;2023-08-21T11:39:57;98056.97;;;27.63;65.61
26865;BME280;40618;51.166;10.322;2023-08-21T11:42:31;98056.97;;;27.63;65.35
26865;BME280;40618;51.166;10.322;2023-08-21T11:44:59;98059.47;;;27.65;65.75
26865;BME280;40618;51.166;10.322;2023-08-21T11:47:31;98059.34;;;27.66;65.47
26865;BME280;40618;51.166;10.322;2023-08-21T11:50:02;98055.31;;;27.72;65.25
26865;BME280;40618;51.166;10.322;2023-08-21T11:52:30;98055.00;;;27.75;65.13
26865;BME280;40618;51.166;10.322;2023-08-21T11:54:57;98056.13;;;27.82;65.15
26865;BME280;40618;51.166;10.322;2023-08-21T11:57:23;98053.59;;;27.81;64.68
26865;BME280;40618;51.166;10.322;2023-08-21T11:59:53;98060.63;;;27.72;64.32
26865;BME280;40618;51.166;10.322;2023-08-21T12:02:27;98051.09;;;27.69;64.24
26865;BME280;40618;51.166;10.322;2023-08-21T12:04:56;98044.22;;;27.67;64.69
26865;BME280;40618;51.166;10.322;2023-08-21T12:07:27;98048.28;;;27.61;63.98
26865;BME280;40618;51.166;10.322;2023-08-21T12:09:53;98044.91;;;27.59;64.12
26865;BME280;40618;51.166;10.322;2023-08-21T12:12:18;98037.91;;;27.58;63.79
26865;BME280;40618;51.166;10.322;2023-08-21T12:14:44;98040.72;;;27.57;63.14
26865;BME280;40618;51.166;10.322;2023-08-21T12:17:11;98037.50;;;27.53;63.23
26865;BME280;40618;51.166;10.322;2023-08-21T12:19:36;98044.66;;;27.72;63.50
26865;BME280;40618;51.166;10.322;2023-08-21T12:22:03;98044.50;;;27.83;63.10
26865;BME280;40618;51.166;10.322;2023-08-21T12:24:29;98044.66;;;27.82;63.11
26865;BME280;40618;51.166;10.322;2023-08-21T12:26:55;98048.97;;;27.83;63.36
26865;BME280;40618;51.166;10.322;2023-08-21T12:29:21;98041.69;;;27.85;62.91
26865;BME280;40618;51.166;10.322;2023-08-21T12:31:47;98045.91;;;27.78;62.64
26865;BME280;40618;51.166;10.322;2023-08-21T12:34:12;98047.03;;;27.65;62.43
26865;BME280;40618;51.166;10.322;2023-08-21T12:36:38;98042.13;;;27.61;62.48
26865;BME280;40618;51.166;10.322;2023-08-21T12:39:05;98036.25;;;27.57;62.51
26865;BME280;40618;51.166;10.322;2023-08-21T12:41:31;98043.38;;;27.66;62.54
26865;BME280;40618;51.166;10.322;2023-08-21T12:43:59;98040.31;;;27.71;62.53
26865;BME280;40618;51.166;10.322;2023-08-21T12:46:25;98038.19;;;27.75;62.23
26865;BME280;40618;51.166;10.322;2023-08-21T12:48:55;98041.13;;;27.72;61.93
26865;BME280;40618;51.166;10.322;2023-08-21T12:51:21;98036.41;;;27.65;62.12
26865;BME280;40618;51.166;10.322;2023-08-21T12:53:47;98040.84;;;27.55;61.87
26865;BME280;40618;51.166;10.322;2023-08-21T12:56:12;98041.69;;;27.46;61.89